Time;durP1;ratioP1;P1;durP2;ratioP2;P2;SDS_P1;SDS_P2;PMS_P1;PMS_P2;Temp;Humidity;BMP_temperature;BMP_pressure;BME280_temperature;BME280_humidity;BME280_pressure;Samples;Min_cycle;Max_cycle;Signal;HPM_P1;HPM_P2
2023/11/11 00:01:15;;;;;;;12.75;3.72;;;11.30;99.90;;;11.18;87.19;99897.16;4824357;29;20114;-66
2023/11/11 00:03:46;;;;;;;12.65;3.80;;;11.10;99.90;;;10.96;88.04;99902.03;4824325;29;20149;-66
2023/11/11 00:06:17;;;;;;;11.30;4.75;;;10.90;99.90;;;10.90;88.11;99907.44;4824091;29;20081;-66
2023/11/11 00:08:46;;;;;;;14.70;4.05;;;10.70;99.90;;;10.82;88.49;99904.09;4824023;29;20051;-66
2023/11/11 00:11:14;;;;;;;13.07;3.83;;;10.60;99.90;;;10.79;87.95;99914.75;4824143;29;20125;-65
2023/11/11 00:13:44;;;;;;;10.95;3.70;;;10.60;99.90;;;10.78;86.49;99905.09;4823901;29;20466;-65
2023/11/11 00:16:12;;;;;;;7.78;3.92;;;10.70;99.90;;;10.71;85.71;99906.97;4823895;29;20099;-65
2023/11/11 00:18:41;;;;;;;11.68;4.07;;;10.60;99.90;;;10.68;86.99;99911.47;4823889;29;20482;-65
2023/11/11 00:21:11;;;;;;;8.07;3.58;;;10.50;99.90;;;10.64;86.96;99915.94;4823841;29;20424;-65
2023/11/11 00:23:40;;;;;;;;;;;10.50;99.90;;;10.48;88.75;99919.78;4824220;29;20497;-66
2023/11/11 00:26:08;;;;;;;15.85;4.47;;;10.40;99.90;;;10.61;89.31;99920.41;4823760;29;19974;-65
2023/11/11 00:28:40;;;;;;;11.73;4.43;;;10.40;99.90;;;10.56;89.70;99911.69;4822775;29;20153;-66
2023/11/11 00:31:10;;;;;;;13.55;3.80;;;10.40;99.90;;;10.73;89.23;99925.44;4823960;29;20051;-65
2023/11/11 00:33:42;;;;;;;10.55;3.90;;;10.50;99.90;;;10.77;88.77;99924.47;4824026;29;20098;-65
2023/11/11 00:36:12;;;;;;;11.45;3.75;;;10.60;99.90;;;10.69;89.08;99935.22;4822782;29;20103;-65
2023/11/11 00:38:40;;;;;;;13.95;4.15;;;10.50;99.90;;;10.63;87.68;99923.88;4824245;29;20053;-65
2023/11/11 00:41:09;;;;;;;8.30;3.75;;;10.40;99.90;;;10.62;86.86;99916.88;4823881;29;20046;-65
2023/11/11 00:43:37;;;;;;;11.10;3.70;;;10.50;99.90;;;10.78;86.68;99935.03;4823854;29;20078;-66
2023/11/11 00:46:05;;;;;;;12.50;4.13;;;10.50;99.90;;;10.56;86.98;99939.03;4823862;29;20050;-65
2023/11/11 00:48:34;;;;;;;9.00;3.67;;;10.40;99.90;;;10.45;87.17;99948.06;4822695;29;20060;-66
2023/11/11 00:51:02;;;;;;;13.20;4.10;;;10.30;99.90;;;10.45;87.07;99935.69;4825073;29;20130;-66
2023/11/11 00:53:32;;;;;;;12.77;4.20;;;10.30;99.90;;;10.54;87.46;99940.81;4826958;29;20050;-66
2023/11/11 00:56:00;;;;;;;17.20;4.25;;;10.30;99.90;;;10.70;86.73;99949.31;4827197;29;20125;-66
2023/11/11 00:58:30;;;;;;;10.90;3.60;;;10.40;99.90;;;10.94;85.69;99946.16;4827071;29;20047;-67
2023/11/11 01:00:58;;;;;;;7.30;3.58;;;10.70;99.90;;;10.98;84.14;99953.13;4827101;29;20568;-67
2023/11/11 01:03:26;;;;;;;8.10;3.85;;;10.80;99.90;;;11.16;83.49;99938.66;4841040;29;20061;-65
2023/11/11 01:05:55;;;;;;;6.90;3.75;;;11.00;99.90;;;11.29;83.24;99940.13;4826938;29;20129;-65
2023/11/11 01:08:23;;;;;;;9.02;4.18;;;11.10;99.90;;;11.38;82.29;99947.88;4825880;29;20572;-65
2023/11/11 01:10:53;;;;;;;10.07;3.75;;;11.20;99.90;;;11.42;81.68;99950.41;4826489;29;20123;-65
2023/11/11 01:13:21;;;;;;;10.55;3.95;;;11.30;99.90;;;11.51;80.97;99958.16;4827030;29;20051;-65
2023/11/11 01:15:52;;;;;;;11.45;3.70;;;11.30;99.90;;;11.52;81.30;99957.22;4825527;29;20050;-66
2023/11/11 01:18:21;;;;;;;11.02;3.63;;;11.30;99.90;;;11.36;81.15;99955.81;4826796;29;20146;-66
2023/11/11 01:20:49;;;;;;;9.30;3.85;;;11.10;99.90;;;11.15;82.38;99956.28;4825436;29;20060;-66
2023/11/11 01:23:21;;;;;;;11.40;4.30;;;10.90;99.90;;;11.27;82.63;99963.09;4825451;29;20050;-67
2023/11/11 01:25:49;;;;;;;14.60;5.05;;;11.00;99.90;;;11.22;82.41;99965.88;4826624;29;20058;-66
2023/11/11 01:28:19;;;;;;;12.00;4.30;;;11.00;99.90;;;11.00;82.91;99961.91;4825296;29;20058;-66
2023/11/11 01:30:47;;;;;;;13.13;4.03;;;10.80;99.90;;;11.07;83.15;99960.88;4825243;29;20046;-66
2023/11/11 01:33:16;;;;;;;9.35;3.95;;;10.90;99.90;;;11.21;83.23;99963.22;4826475;29;20054;-65
2023/11/11 01:35:45;;;;;;;7.50;3.83;;;11.00;99.90;;;11.37;82.86;99967.28;4826458;29;20081;-65
2023/11/11 01:38:13;;;;;;;11.75;4.30;;;11.10;99.90;;;11.20;82.73;99961.50;4826427;29;20046;-66
2023/11/11 01:40:41;;;;;;;10.30;3.97;;;11.10;99.90;;;11.24;82.80;99961.41;4826623;29;20125;-66
2023/11/11 01:43:12;;;;;;;12.10;4.07;;;11.00;99.90;;;11.24;83.67;99953.47;4826296;29;20401;-66
2023/11/11 01:45:43;;;;;;;14.85;4.55;;;11.10;99.90;;;11.06;83.59;99919.47;4826628;29;20057;-65
2023/11/11 01:48:12;;;;;;;11.13;3.90;;;11.10;99.90;;;11.15;84.14;99961.59;4826330;29;20057;-65
2023/11/11 01:50:42;;;;;;;10.57;3.92;;;11.10;99.90;;;11.05;85.13;99972.41;4826235;29;20062;-65
2023/11/11 01:53:13;;;;;;;10.88;3.92;;;10.90;99.90;;;11.05;85.71;99965.34;4824854;29;20394;-65
2023/11/11 01:55:41;;;;;;;;;;;10.90;99.90;;;10.90;87.33;99965.66;4826623;29;20058;-66
2023/11/11 01:58:10;;;;;;;13.50;4.32;;;10.80;99.90;;;10.98;87.79;99974.31;4824621;29;20355;-65
2023/11/11 02:00:40;;;;;;;12.00;4.82;;;10.80;99.90;;;11.12;87.70;99980.19;4824573;29;20063;-65
2023/11/11 02:03:09;;;;;;;;;;;10.80;99.90;;;11.11;87.02;99969.66;4826683;29;20103;-65
2023/11/11 02:05:37;;;;;;;12.05;4.53;;;10.90;99.90;;;10.97;87.47;99959.34;4825985;29;19981;-65
2023/11/11 02:08:08;;;;;;;13.65;4.93;;;10.80;99.90;;;10.95;87.40;99969.09;4824874;29;20091;-65
2023/11/11 02:10:37;;;;;;;;;;;10.80;99.90;;;11.08;86.21;99983.81;4826318;29;20054;-65
2023/11/11 02:13:07;;;;;;;12.98;4.40;;;10.90;99.90;;;10.93;86.30;99978.84;4825537;29;20398;-65
2023/11/11 02:15:37;;;;;;;12.48;4.63;;;10.80;99.90;;;10.90;86.25;99976.22;4824601;29;20072;-65
2023/11/11 02:18:07;;;;;;;11.88;4.80;;;10.70;99.90;;;10.78;86.03;99985.28;4825798;29;20474;-65
2023/11/11 02:20:35;;;;;;;13.73;4.13;;;10.60;99.90;;;10.73;85.42;99980.97;4825794;29;20042;-66
2023/11/11 02:23:04;;;;;;;11.85;4.93;;;10.60;99.90;;;10.77;85.12;99988.84;4825724;29;20114;-65
2023/11/11 02:25:34;;;;;;;10.57;3.88;;;10.50;99.90;;;10.76;84.52;99981.78;4825701;29;20043;-65
2023/11/11 02:28:02;;;;;;;11.02;4.30;;;10.60;99.90;;;10.76;83.62;99994.16;4825691;29;20409;-65
2023/11/11 02:30:31;;;;;;;11.38;4.63;;;10.60;99.90;;;10.64;84.24;99995.28;4824347;29;20062;-65
2023/11/11 02:32:59;;;;;;;12.48;4.18;;;10.50;99.90;;;10.74;84.16;99991.53;4825530;29;20057;-65
2023/11/11 02:35:27;;;;;;;9.63;4.35;;;10.50;99.90;;;10.64;83.23;99995.28;4825702;29;20050;-65
2023/11/11 02:37:56;;;;;;;6.47;4.20;;;10.50;99.90;;;10.47;82.92;99985.91;4824285;29;20063;-65
2023/11/11 02:40:24;;;;;;;9.82;4.22;;;10.40;99.90;;;10.53;83.04;99988.44;4825547;29;20127;-65
2023/11/11 02:42:54;;;;;;;10.93;4.30;;;10.40;99.90;;;10.54;83.31;100003.38;4824179;29;20103;-65
2023/11/11 02:45:25;;;;;;;12.60;4.60;;;10.40;99.90;;;10.58;82.84;99994.50;4825426;29;20050;-65
2023/11/11 02:47:54;;;;;;;9.50;5.15;;;10.40;99.90;;;10.58;82.84;99999.78;4825380;29;20058;-65
2023/11/11 02:50:22;;;;;;;11.73;4.65;;;10.40;99.90;;;10.67;82.42;99994.31;4825427;29;20443;-65
2023/11/11 02:52:50;;;;;;;6.05;4.22;;;10.50;99.90;;;10.68;82.18;99991.63;4825203;29;20050;-65
2023/11/11 02:55:19;;;;;;;10.07;4.63;;;10.50;99.90;;;10.76;81.81;100004.75;4825201;29;20117;-65
2023/11/11 02:57:48;;;;;;;11.65;4.35;;;10.60;99.90;;;10.74;82.20;100010.03;4823884;29;20047;-66
2023/11/11 03:00:21;;;;;;;10.70;4.20;;;10.50;99.90;;;10.77;81.98;100012.66;4823507;29;20070;-65
2023/11/11 03:02:49;;;;;;;9.48;4.75;;;10.60;99.90;;;10.82;81.25;100004.59;4825236;29;20058;-65
2023/11/11 03:05:18;;;;;;;11.50;4.60;;;10.70;99.90;;;10.89;81.20;100011.53;4825128;29;20050;-65
2023/11/11 03:07:46;;;;;;;11.40;4.57;;;10.70;99.90;;;10.87;81.11;100011.56;4824792;29;20046;-65
2023/11/11 03:10:15;;;;;;;9.88;4.40;;;10.80;99.90;;;10.94;81.29;100014.09;4825015;29;20393;-65
2023/11/11 03:12:44;;;;;;;9.30;4.90;;;10.80;99.90;;;10.95;80.96;99999.97;4824520;29;20057;-65
2023/11/11 03:15:12;;;;;;;11.38;4.28;;;10.80;99.90;;;10.98;81.04;100018.41;4823410;29;20135;-66
2023/11/11 03:17:44;;;;;;;7.13;4.35;;;10.80;99.90;;;10.94;81.16;99988.50;4824946;29;20047;-65
2023/11/11 03:20:13;;;;;;;6.63;4.40;;;10.90;99.90;;;10.89;81.56;100006.25;4824977;29;20050;-66
2023/11/11 03:22:41;;;;;;;10.20;4.95;;;10.80;99.90;;;10.91;81.60;100017.69;4824864;29;20050;-65
2023/11/11 03:25:13;;;;;;;12.38;5.55;;;10.80;99.90;;;10.77;81.50;100025.00;4824808;29;20103;-65
2023/11/11 03:27:42;;;;;;;10.93;4.80;;;10.70;99.90;;;10.68;80.98;100017.25;4824851;29;20074;-65
2023/11/11 03:30:12;;;;;;;8.77;4.80;;;10.60;99.90;;;10.80;80.57;100039.03;4823544;29;20557;-64
2023/11/11 03:32:41;;;;;;;8.98;4.63;;;10.60;99.90;;;10.79;80.40;100031.13;4824684;29;20141;-65
2023/11/11 03:35:10;;;;;;;8.97;4.53;;;10.60;99.90;;;10.75;79.95;100034.72;4824749;29;20078;-65
2023/11/11 03:37:38;;;;;;;9.70;4.78;;;10.60;99.90;;;10.74;80.08;100035.66;4824652;29;20137;-64
2023/11/11 03:40:10;;;;;;;9.05;4.63;;;10.60;99.90;;;10.72;80.38;100040.94;4823349;29;20465;-65
2023/11/11 03:42:38;;;;;;;11.02;4.70;;;10.60;99.90;;;10.70;80.67;100037.44;4824615;29;20054;-65
2023/11/11 03:45:09;;;;;;;7.63;4.60;;;10.60;99.90;;;10.73;80.95;100050.63;4824492;29;20142;-65
2023/11/11 03:47:38;;;;;;;;;;;10.60;99.90;;;10.83;80.75;100052.22;4824757;29;20046;-65
2023/11/11 03:50:09;;;;;;;9.18;4.05;;;10.70;99.90;;;10.78;80.65;100055.84;4823192;29;19935;-65
2023/11/11 03:52:37;;;;;;;;;;;10.60;99.90;;;10.86;81.01;100049.50;4824541;29;20042;-65
2023/11/11 03:55:07;;;;;;;10.02;4.80;;;10.70;99.90;;;10.83;80.74;100048.69;4824385;29;19978;-66
2023/11/11 03:57:35;;;;;;;9.57;5.07;;;10.70;99.90;;;10.90;80.90;100053.84;4824414;29;20046;-65
2023/11/11 04:00:07;;;;;;;11.32;5.15;;;10.70;99.90;;;10.65;81.91;100054.31;4824265;29;20079;-65
2023/11/11 04:02:39;;;;;;;8.48;4.60;;;10.60;99.90;;;10.60;81.08;100059.69;4824381;29;20104;-65
2023/11/11 04:05:11;;;;;;;10.00;4.63;;;10.50;99.90;;;10.62;79.63;100055.25;4823196;29;20059;-65
2023/11/11 04:07:40;;;;;;;10.38;4.82;;;10.50;99.90;;;10.41;78.94;100063.56;4823023;29;20560;-65
2023/11/11 04:10:10;;;;;;;6.03;4.40;;;10.30;99.90;;;10.29;79.01;100068.16;4823007;29;20078;-65
2023/11/11 04:12:39;;;;;;;6.93;4.28;;;10.20;99.90;;;10.41;78.15;100067.97;4822887;29;20054;-65
2023/11/11 04:15:09;;;;;;;11.38;4.82;;;10.20;99.90;;;10.45;77.91;100069.66;4822849;29;20103;-65
2023/11/11 04:17:42;;;;;;;9.35;5.05;;;10.30;99.90;;;10.51;77.69;100062.47;4824230;29;20128;-65
2023/11/11 04:20:13;;;;;;;9.27;4.60;;;10.30;99.90;;;10.33;79.00;100075.13;4822943;29;20054;-64
2023/11/11 04:22:43;;;;;;;7.93;4.68;;;10.20;99.90;;;10.08;80.27;100060.53;4822865;29;20141;-66
2023/11/11 04:25:12;;;;;;;7.75;4.57;;;10.10;99.90;;;10.28;80.87;100106.91;4838164;29;20050;-65
2023/11/11 04:27:42;;;;;;;12.45;4.53;;;10.10;99.90;;;10.22;81.27;100079.72;4826209;29;20077;-65
2023/11/11 04:30:11;;;;;;;11.23;4.65;;;10.10;99.90;;;10.18;81.44;100084.16;4827451;29;20057;-65
2023/11/11 04:32:41;;;;;;;9.45;4.60;;;10.00;99.90;;;10.27;81.27;100085.81;4827553;29;20058;-65
2023/11/11 04:35:09;;;;;;;7.38;4.55;;;10.10;99.90;;;10.36;81.23;100081.25;4827377;29;20130;-64
2023/11/11 04:37:39;;;;;;;9.25;4.93;;;10.20;99.90;;;10.35;80.66;100081.28;4827274;29;20052;-65
2023/11/11 04:40:10;;;;;;;12.07;5.00;;;10.20;99.90;;;10.30;81.05;100088.41;4827249;29;20051;-65
2023/11/11 04:42:39;;;;;;;15.02;5.30;;;10.20;99.90;;;10.41;80.82;100091.75;4827238;29;20074;-65
2023/11/11 04:45:09;;;;;;;10.82;4.43;;;10.30;99.90;;;10.26;81.11;100089.38;4827403;29;20070;-65
2023/11/11 04:47:37;;;;;;;9.70;4.57;;;10.20;99.90;;;10.24;80.84;100089.34;4827676;29;20064;-65
2023/11/11 04:50:06;;;;;;;9.65;4.25;;;10.10;99.90;;;10.24;80.28;100089.34;4827068;29;20472;-64
2023/11/11 04:52:36;;;;;;;8.85;4.88;;;10.10;99.90;;;10.32;80.20;100095.41;4827187;29;20047;-65
2023/11/11 04:55:08;;;;;;;13.07;5.18;;;10.20;99.90;;;10.27;80.15;100088.44;4827403;29;20074;-65
2023/11/11 04:57:36;;;;;;;8.60;4.40;;;10.20;99.90;;;10.27;80.16;100097.25;4826955;29;20117;-65
2023/11/11 05:00:09;;;;;;;8.10;4.50;;;10.10;99.90;;;10.20;80.45;100092.09;4827207;29;20082;-65
2023/11/11 05:02:39;;;;;;;12.48;4.72;;;10.10;99.90;;;10.20;80.77;100097.38;4827150;29;20092;-65
2023/11/11 05:05:10;;;;;;;8.55;4.47;;;10.10;99.90;;;10.23;80.59;100092.03;4826806;29;20135;-64
2023/11/11 05:07:39;;;;;;;13.65;4.50;;;10.10;99.90;;;10.32;80.31;100107.72;4825994;29;20433;-65
2023/11/11 05:10:10;;;;;;;7.07;4.35;;;10.20;99.90;;;10.35;80.45;100107.72;4826634;29;20585;-65
2023/11/11 05:12:38;;;;;;;14.45;4.80;;;10.20;99.90;;;10.24;80.94;100092.00;4827184;29;20114;-66
2023/11/11 05:15:14;;;;;;;9.13;4.60;;;10.20;99.90;;;10.22;81.68;100098.22;4826529;29;20054;-65
2023/11/11 05:17:44;;;;;;;12.40;4.40;;;10.10;99.90;;;10.22;82.24;100104.38;4826851;29;20540;-65
2023/11/11 05:20:14;;;;;;;11.18;4.70;;;10.10;99.90;;;10.33;82.60;100099.81;4826475;29;20071;-66
2023/11/11 05:22:42;;;;;;;11.25;5.00;;;10.10;99.90;;;10.33;82.54;100112.16;4825490;29;20496;-65
2023/11/11 05:25:12;;;;;;;11.07;4.50;;;10.20;99.90;;;10.32;82.82;100113.91;4826638;29;20047;-65
2023/11/11 05:27:41;;;;;;;9.32;4.53;;;10.20;99.90;;;10.32;83.10;100116.53;4826338;29;20050;-65
2023/11/11 05:30:10;;;;;;;8.70;4.60;;;10.20;99.90;;;10.42;82.81;100112.00;4826342;29;20073;-65
2023/11/11 05:32:39;;;;;;;12.75;5.13;;;10.20;99.90;;;10.49;82.61;100111.84;4826577;29;20054;-65
2023/11/11 05:35:09;;;;;;;11.32;4.72;;;10.30;99.90;;;10.47;82.72;100124.22;4826420;29;20054;-65
2023/11/11 05:37:42;;;;;;;11.68;4.90;;;10.30;99.90;;;10.50;82.81;100126.84;4825835;29;20054;-65
2023/11/11 05:40:17;;;;;;;11.13;4.50;;;10.40;99.90;;;10.57;82.88;100127.59;4826455;29;20069;-65
2023/11/11 05:42:48;;;;;;;15.73;4.97;;;10.40;99.90;;;10.56;83.00;100134.69;4826209;29;20051;-66
2023/11/11 05:45:17;;;;;;;12.43;4.80;;;10.40;99.90;;;10.54;83.40;100132.94;4826094;29;20046;-65
2023/11/11 05:47:46;;;;;;;9.60;4.78;;;10.40;99.90;;;10.39;84.06;100128.78;4826628;29;20577;-66
2023/11/11 05:50:16;;;;;;;8.45;4.70;;;10.30;99.90;;;10.48;83.59;100135.69;4826285;29;20442;-65
2023/11/11 05:52:44;;;;;;;17.67;5.15;;;10.30;99.90;;;10.43;83.83;100137.53;4826042;29;20121;-66
2023/11/11 05:55:14;;;;;;;14.32;4.97;;;10.30;99.90;;;10.55;84.09;100140.84;4826061;29;20454;-65
2023/11/11 05:57:42;;;;;;;11.85;4.57;;;10.30;99.90;;;10.56;84.37;100139.09;4825922;29;20046;-66
2023/11/11 06:00:13;;;;;;;14.27;5.25;;;10.40;99.90;;;10.69;84.13;100146.78;4825832;29;20496;-65
2023/11/11 06:02:42;;;;;;;13.55;5.15;;;10.50;99.90;;;10.57;84.32;100138.16;4826211;29;20690;-65
2023/11/11 06:05:11;;;;;;;16.33;5.70;;;10.50;99.90;;;10.58;84.79;100146.09;4825767;29;20050;-65
2023/11/11 06:07:39;;;;;;;11.57;4.97;;;10.40;99.90;;;10.49;85.27;100153.31;4824765;29;20157;-65
2023/11/11 06:10:09;;;;;;;13.73;4.97;;;10.30;99.90;;;10.55;84.53;100147.94;4825959;29;20058;-65
2023/11/11 06:12:39;;;;;;;12.90;5.55;;;10.40;99.90;;;10.34;84.83;100148.22;4825926;29;20065;-65
2023/11/11 06:15:09;;;;;;;11.38;5.05;;;10.30;99.90;;;10.30;84.97;100149.22;4826190;29;20054;-65
2023/11/11 06:17:38;;;;;;;10.57;5.25;;;10.20;99.90;;;10.35;84.85;100156.16;4825640;29;20065;-65
2023/11/11 06:20:09;;;;;;;12.20;5.13;;;10.20;99.90;;;10.36;85.02;100151.72;4825526;29;20047;-65
2023/11/11 06:22:37;;;;;;;14.25;5.65;;;10.20;99.90;;;10.26;85.41;100155.44;4825539;29;20129;-65
2023/11/11 06:25:08;;;;;;;9.32;5.25;;;10.10;99.90;;;10.48;84.81;100156.84;4825436;29;20544;-66
2023/11/11 06:27:38;;;;;;;8.80;4.65;;;10.30;99.90;;;10.52;84.38;100158.53;4825582;29;20054;-65
2023/11/11 06:30:09;;;;;;;13.48;5.10;;;10.30;99.90;;;10.54;84.04;100160.28;4825472;29;20077;-66
2023/11/11 06:32:38;;;;;;;11.57;5.57;;;10.40;99.90;;;10.37;84.67;100158.78;4825585;29;20390;-66
2023/11/11 06:35:09;;;;;;;12.63;5.10;;;10.30;99.90;;;10.45;85.03;100154.25;4824536;29;20095;-66
2023/11/11 06:37:37;;;;;;;18.52;5.35;;;10.30;99.90;;;10.50;85.12;100163.84;4825209;29;20058;-66
2023/11/11 06:40:08;;;;;;;9.70;4.78;;;10.30;99.90;;;10.49;84.75;100167.38;4825506;29;20047;-65
2023/11/11 06:42:38;;;;;;;11.32;5.28;;;10.30;99.90;;;10.46;84.35;100162.16;4824097;29;20051;-66
2023/11/11 06:45:08;;;;;;;13.57;5.35;;;10.30;99.90;;;9.77;83.58;100050.44;4825264;29;20046;-66
2023/11/11 06:47:36;;;;;;;10.90;4.90;;;10.30;99.90;;;9.69;83.88;100070.78;4825431;29;20047;-66
2023/11/11 06:50:07;;;;;;;8.25;4.13;;;10.10;99.90;;;10.13;84.00;100172.34;4824677;29;20408;-67
2023/11/11 06:52:35;;;;;;;;;;;10.00;99.90;;;10.10;82.76;100173.28;4825810;29;20137;-65
2023/11/11 06:55:09;;;;;;;8.98;4.88;;;9.90;99.90;;;10.15;82.85;100173.19;4824950;29;19925;-66
2023/11/11 06:57:39;;;;;;;7.18;4.25;;;9.90;99.90;;;10.12;82.62;100175.88;4825077;29;20138;-66
2023/11/11 07:00:15;;;;;;;12.85;4.32;;;9.90;99.90;;;10.06;82.88;100179.44;4824913;29;20054;-66
2023/11/11 07:02:44;;;;;;;15.73;4.75;;;9.90;99.90;;;10.14;82.81;100180.25;4825033;29;20042;-66
2023/11/11 07:05:13;;;;;;;9.70;4.55;;;9.90;99.90;;;10.11;82.89;100187.34;4824879;29;20050;-66
2023/11/11 07:07:41;;;;;;;9.30;4.55;;;9.90;99.90;;;10.12;82.86;100192.63;4824880;29;20082;-65
2023/11/11 07:10:11;;;;;;;13.00;5.40;;;9.90;99.90;;;10.15;82.42;100189.03;4824742;29;20058;-65
2023/11/11 07:12:43;;;;;;;11.82;4.60;;;10.00;99.90;;;10.10;82.74;100201.44;4824841;29;20046;-66
2023/11/11 07:15:12;;;;;;;12.50;4.60;;;9.90;99.90;;;10.07;82.98;100199.69;4824572;29;20481;-65
2023/11/11 07:17:41;;;;;;;10.13;4.53;;;9.90;99.90;;;10.05;83.07;100206.75;4824969;29;20119;-66
2023/11/11 07:20:12;;;;;;;13.40;5.03;;;9.90;99.90;;;10.18;82.92;100205.72;4825219;29;20057;-66
2023/11/11 07:22:41;;;;;;;7.70;4.30;;;10.00;99.90;;;10.11;83.20;100205.81;4824623;29;20054;-66
2023/11/11 07:25:11;;;;;;;8.77;4.80;;;9.90;99.90;;;10.08;83.15;100219.94;4824471;29;20050;-66
2023/11/11 07:27:40;;;;;;;10.77;4.85;;;9.90;99.90;;;10.16;83.06;100211.94;4824823;29;20054;-66
2023/11/11 07:30:12;;;;;;;8.63;4.47;;;9.90;99.90;;;10.23;82.91;100218.88;4824486;29;20077;-65
2023/11/11 07:32:44;;;;;;;7.38;4.40;;;10.00;99.90;;;10.19;82.56;100227.75;4824504;29;20291;-66
2023/11/11 07:35:27;;;;;;;9.65;4.15;;;10.00;99.90;;;10.23;82.63;100230.34;4824549;29;20050;-66
2023/11/11 07:37:56;;;;;;;14.27;5.00;;;10.00;99.90;;;10.22;82.37;100238.28;4824149;29;20061;-66
2023/11/11 07:40:25;;;;;;;10.45;5.00;;;10.00;99.90;;;10.25;82.92;100243.53;4824602;29;20158;-63
2023/11/11 07:42:56;;;;;;;12.02;4.90;;;10.10;99.90;;;10.26;82.85;100240.00;4824602;29;20069;-63
2023/11/11 07:45:26;;;;;;;8.10;4.38;;;10.10;99.90;;;10.35;82.95;100238.09;4824244;29;20149;-63
2023/11/11 07:47:55;;;;;;;11.60;4.68;;;10.20;99.90;;;10.68;82.27;100249.97;4824501;29;20046;-64
2023/11/11 07:50:23;;;;;;;9.80;4.55;;;10.40;99.90;;;10.77;82.20;100248.06;4824707;29;20111;-64
2023/11/11 07:52:54;;;;;;;11.57;4.57;;;10.50;99.90;;;10.90;81.83;100246.97;4824100;29;20107;-64
2023/11/11 07:55:23;;;;;;;10.98;4.88;;;10.70;99.90;;;11.04;81.71;100241.44;4824570;29;20042;-63
2023/11/11 07:57:52;;;;;;;14.50;4.97;;;10.80;99.90;;;11.43;81.64;100253.13;4824092;29;20046;-64
2023/11/11 08:00:25;;;;;;;11.15;5.13;;;11.20;99.90;;;11.55;80.61;100267.03;4823773;29;20058;-65
2023/11/11 08:02:54;;;;;;;12.88;4.70;;;11.30;99.90;;;11.70;80.16;100263.25;4824620;29;20066;-65
2023/11/11 08:05:28;;;;;;;10.43;4.20;;;11.50;99.90;;;11.81;79.44;100260.41;4824349;29;20061;-68
2023/11/11 08:07:57;;;;;;;10.85;4.40;;;11.60;99.90;;;12.12;78.22;100261.53;4824154;29;20076;-67
2023/11/11 08:10:42;;;;;;;8.55;4.50;;;11.90;99.90;;;12.20;77.50;100256.94;4824267;29;20054;-69
2023/11/11 08:13:11;;;;;;;13.52;4.60;;;12.10;99.90;;;12.38;77.22;100280.44;4823914;29;20047;-69
2023/11/11 08:15:40;;;;;;;7.00;4.20;;;12.20;99.90;;;12.54;77.01;100277.41;4824009;29;20111;-68
2023/11/11 08:18:10;;;;;;;9.15;4.32;;;12.30;99.90;;;12.45;76.64;100276.75;4823909;29;20608;-68
2023/11/11 08:20:38;;;;;;;14.55;4.53;;;12.30;99.90;;;12.28;76.68;100274.47;4823764;29;20045;-66
2023/11/11 08:23:07;;;;;;;9.55;4.15;;;12.10;99.90;;;12.51;76.77;100277.50;4823959;29;20066;-67
2023/11/11 08:25:35;;;;;;;13.52;4.40;;;12.30;99.90;;;12.45;75.99;100276.75;4824382;29;20054;-64
2023/11/11 08:28:05;;;;;;;7.53;4.10;;;12.30;99.90;;;12.84;74.93;100291.78;4823838;29;20484;-67
2023/11/11 08:30:34;;;;;;;8.45;4.18;;;12.60;99.90;;;13.05;74.62;100280.69;4823974;29;20137;-65
2023/11/11 08:33:05;;;;;;;13.00;4.35;;;12.80;99.90;;;13.40;72.47;100287.78;4823702;29;20082;-66
2023/11/11 08:35:33;;;;;;;5.85;3.80;;;13.20;99.90;;;13.56;72.37;100291.81;4823571;29;20049;-63
2023/11/11 08:38:02;;;;;;;7.15;4.10;;;13.40;99.90;;;13.85;71.77;100288.38;4823614;29;20050;-64
2023/11/11 08:40:30;;;;;;;10.23;4.20;;;13.60;99.90;;;13.76;69.67;100285.97;4823503;29;20404;-65
2023/11/11 08:42:58;;;;;;;6.28;3.42;;;13.60;99.90;;;14.15;69.06;100292.88;4823546;29;20050;-64
2023/11/11 08:45:27;;;;;;;7.63;3.70;;;13.90;99.90;;;13.74;68.27;100287.81;4823554;29;20115;-67
2023/11/11 08:47:56;;;;;;;9.65;4.00;;;13.70;99.90;;;13.67;67.02;100294.19;4824125;29;20130;-65
2023/11/11 08:50:26;;;;;;;6.88;3.50;;;13.50;99.90;;;13.38;66.37;100286.97;4823939;29;20058;-68
2023/11/11 08:52:55;;;;;;;8.45;3.95;;;13.30;99.90;;;13.27;67.59;100291.66;4823547;29;20047;-67
2023/11/11 08:55:23;;;;;;;8.38;3.67;;;13.10;99.90;;;13.12;66.80;100289.41;4823297;29;20051;-67
2023/11/11 08:57:52;;;;;;;5.13;3.20;;;13.00;99.90;;;13.04;66.96;100276.31;4823592;29;20047;-62
2023/11/11 09:00:20;;;;;;;7.22;3.40;;;12.90;99.90;;;13.39;66.54;100294.03;4823137;29;20110;-67
2023/11/11 09:02:49;;;;;;;8.27;3.60;;;13.10;99.90;;;13.28;66.31;100290.75;4823446;29;20058;-65
2023/11/11 09:05:18;;;;;;;7.40;3.22;;;13.10;99.90;;;13.49;66.19;100293.75;4823512;29;20054;-67
2023/11/11 09:07:48;;;;;;;5.63;3.50;;;13.20;99.90;;;13.68;65.37;100298.59;4823297;29;20068;-65
2023/11/11 09:10:16;;;;;;;6.80;3.70;;;13.40;99.90;;;13.89;65.44;100303.34;4823235;29;20055;-67
2023/11/11 09:12:45;;;;;;;6.50;3.30;;;13.60;99.90;;;13.84;65.02;100295.47;4825376;29;20130;-65
2023/11/11 09:15:16;;;;;;;6.03;3.30;;;13.70;99.90;;;13.85;65.78;100296.34;4826262;29;20061;-64
2023/11/11 09:17:45;;;;;;;5.70;3.10;;;13.70;99.90;;;13.34;63.79;100293.25;4826608;29;20050;-65
2023/11/11 09:20:14;;;;;;;7.32;3.20;;;13.30;99.90;;;12.90;64.43;100291.66;4826490;29;20485;-65
2023/11/11 09:22:42;;;;;;;4.93;3.20;;;12.80;99.90;;;12.76;64.92;100298.16;4826765;29;20051;-65
2023/11/11 09:25:14;;;;;;;11.13;3.70;;;12.60;99.90;;;12.35;65.61;100299.09;4826625;29;20050;-62
2023/11/11 09:27:43;;;;;;;4.40;3.30;;;12.20;99.90;;;12.55;66.04;100294.22;4827041;29;20083;-66
2023/11/11 09:30:13;;;;;;;6.20;3.33;;;12.30;99.90;;;12.70;66.32;100305.34;4826576;29;20057;-66
2023/11/11 09:32:42;;;;;;;6.03;3.40;;;12.40;99.90;;;12.89;66.64;100294.34;4826228;29;20059;-65
2023/11/11 09:35:13;;;;;;;7.78;3.30;;;12.70;99.90;;;13.06;65.61;100308.13;4826102;29;20512;-67
2023/11/11 09:37:42;;;;;;;4.00;3.30;;;12.80;99.90;;;13.15;65.54;100307.91;4826213;29;20046;-66
2023/11/11 09:40:13;;;;;;;4.78;3.40;;;12.90;99.90;;;13.37;64.34;100319.75;4825994;29;20125;-67
2023/11/11 09:42:41;;;;;;;5.13;3.70;;;13.10;99.90;;;13.55;64.68;100322.81;4826194;29;20058;-67
2023/11/11 09:45:13;;;;;;;7.07;3.60;;;13.30;99.90;;;13.49;62.90;100317.66;4826044;29;20062;-67
2023/11/11 09:47:45;;;;;;;9.70;3.35;;;13.30;99.90;;;13.42;63.05;100316.06;4826008;29;20534;-67
2023/11/11 09:50:15;;;;;;;8.73;3.95;;;13.20;99.90;;;13.28;63.53;100323.50;4826106;29;20062;-67
2023/11/11 09:52:44;;;;;;;5.90;3.25;;;13.10;99.90;;;13.45;64.78;100323.09;4825759;29;20046;-66
2023/11/11 09:55:15;;;;;;;7.27;3.60;;;13.20;99.90;;;13.74;64.91;100331.22;4824804;29;20054;-65
2023/11/11 09:57:44;;;;;;;5.88;3.35;;;13.60;99.90;;;13.78;63.72;100324.88;4826131;29;20065;-68
2023/11/11 10:00:17;;;;;;;7.65;3.65;;;13.70;99.90;;;14.06;64.84;100319.69;4826034;29;20070;-64
2023/11/11 10:02:45;;;;;;;8.75;3.20;;;13.90;99.90;;;14.32;64.56;100325.22;4826072;29;20119;-65
2023/11/11 10:05:14;;;;;;;6.57;3.75;;;14.20;99.90;;;14.55;62.51;100320.09;4824686;29;20051;-62
2023/11/11 10:07:43;;;;;;;7.18;3.63;;;14.40;99.90;;;14.70;62.17;100318.75;4825634;29;20076;-62
2023/11/11 10:10:14;;;;;;;6.50;3.58;;;14.60;99.90;;;15.10;63.05;100325.47;4825650;29;20082;-63
2023/11/11 10:12:42;;;;;;;6.65;3.22;;;14.90;99.90;;;15.25;61.99;100317.00;4825730;29;20125;-64
2023/11/11 10:15:11;;;;;;;4.55;3.25;;;15.20;99.90;;;15.35;61.62;100328.22;4825541;29;20051;-63
2023/11/11 10:17:41;;;;;;;7.05;3.70;;;15.20;99.90;;;15.02;61.52;100335.50;4825449;29;20058;-63
2023/11/11 10:20:13;;;;;;;4.93;3.13;;;15.00;99.90;;;14.75;61.38;100335.50;4825683;29;20060;-63
2023/11/11 10:22:45;;;;;;;6.22;3.63;;;14.60;99.90;;;14.33;61.93;100335.81;4825317;29;20087;-66